createdAt,value
2023-05-08T00:02:00.891Z,39.13
2023-05-08T00:07:04.492Z,43.22
2023-05-08T00:12:09.339Z,42.83
2023-05-08T00:17:13.625Z,43.90
2023-05-08T00:22:17.088Z,41.58
2023-05-08T00:27:21.966Z,40.33
2023-05-08T00:32:25.583Z,39.63
2023-05-08T00:37:29.329Z,39.53
2023-05-08T00:42:34.187Z,41.10
2023-05-08T00:47:37.763Z,44.17
2023-05-08T00:52:41.334Z,40.00
2023-05-08T00:57:48.897Z,42.15
2023-05-08T01:02:52.472Z,40.80
2023-05-08T01:07:56.195Z,44.58
2023-05-08T01:13:07.219Z,41.85
2023-05-08T01:18:15.340Z,43.88
2023-05-08T01:23:44.664Z,47.92
2023-05-08T01:28:58.037Z,47.63
2023-05-08T01:34:07.046Z,47.40
2023-05-08T01:39:14.604Z,45.17
2023-05-08T01:44:20.078Z,44.17
2023-05-08T01:49:27.183Z,45.72
2023-05-08T01:54:32.075Z,46.95
2023-05-08T01:59:36.598Z,45.33
2023-05-08T02:04:41.719Z,45.40
2023-05-08T02:09:46.232Z,46.97
2023-05-08T02:14:51.693Z,52.72
2023-05-08T02:19:56.916Z,53.13
2023-05-08T02:25:00.546Z,50.70
2023-05-08T02:30:04.833Z,51.53
2023-05-08T02:35:10.895Z,51.17
2023-05-08T02:40:15.339Z,52.80
2023-05-08T02:45:19.872Z,52.00
2023-05-08T02:50:29.030Z,55.92
2023-05-08T02:55:35.766Z,57.35
2023-05-08T03:00:42.699Z,57.20
2023-05-08T03:05:53.244Z,57.25
2023-05-08T03:11:02.923Z,55.78
2023-05-08T03:16:08.671Z,53.95
2023-05-08T03:21:15.642Z,56.30
2023-05-08T03:26:21.703Z,54.45
2023-05-08T03:31:26.173Z,53.65
2023-05-08T03:36:32.311Z,56.97
2023-05-08T03:41:36.480Z,56.20
2023-05-08T03:46:40.469Z,55.15
2023-05-08T03:51:45.894Z,54.42
2023-05-08T03:56:51.512Z,56.28
2023-05-08T04:01:56.994Z,56.83
2023-05-08T04:07:05.774Z,55.03
2023-05-08T04:12:17.764Z,57.65
2023-05-08T04:17:25.262Z,54.85
2023-05-08T04:22:31.613Z,55.72
2023-05-08T04:27:35.785Z,54.50
2023-05-08T04:32:41.720Z,52.13
2023-05-08T04:37:48.044Z,48.72
2023-05-08T04:42:52.226Z,49.58
2023-05-08T04:47:56.653Z,48.53
2023-05-08T04:53:01.855Z,44.70
2023-05-08T04:58:05.556Z,42.55
2023-05-08T05:03:09.384Z,41.65
2023-05-08T05:08:14.367Z,34.78
2023-05-08T05:13:18.362Z,36.55
2023-05-08T05:18:22.219Z,33.53
2023-05-08T05:23:28.711Z,32.78
2023-05-08T05:28:32.472Z,33.13
2023-05-08T05:33:37.537Z,33.63
2023-05-08T05:38:42.635Z,32.40
2023-05-08T05:43:46.334Z,29.88
2023-05-08T05:48:49.857Z,27.70
2023-05-08T05:53:55.148Z,28.73
2023-05-08T05:58:59.588Z,27.85
2023-05-08T06:04:04.511Z,27.27
2023-05-08T06:09:09.261Z,24.50
2023-05-08T06:14:12.435Z,25.83
2023-05-08T06:19:16.490Z,26.30
2023-05-08T06:24:21.585Z,25.55
2023-05-08T06:29:25.077Z,25.83
2023-05-08T06:34:28.504Z,26.75
2023-05-08T06:39:33.234Z,28.27
2023-05-08T06:44:36.817Z,26.38
2023-05-08T06:49:40.408Z,26.85
2023-05-08T06:54:45.447Z,23.95
2023-05-08T06:59:48.975Z,24.98
2023-05-08T07:04:52.499Z,26.20
2023-05-08T07:09:57.214Z,27.67
2023-05-08T07:15:03.570Z,27.67
2023-05-08T07:20:11.834Z,27.48
2023-05-08T07:25:17.008Z,27.27
2023-05-08T07:30:20.793Z,26.67
2023-05-08T07:35:24.439Z,25.95
2023-05-08T07:40:29.487Z,24.13
2023-05-08T07:45:33.071Z,24.88
2023-05-08T07:50:36.862Z,22.50
2023-05-08T07:55:41.441Z,24.85
2023-05-08T08:00:44.667Z,27.42
2023-05-08T08:05:48.057Z,25.83
2023-05-08T08:10:53.218Z,28.83
2023-05-08T08:15:57.208Z,30.67
2023-05-08T08:21:01.301Z,32.75
2023-05-08T08:26:05.978Z,35.25
2023-05-08T08:31:09.173Z,36.47
2023-05-08T08:36:14.920Z,35.72
2023-05-08T08:41:19.579Z,34.78
2023-05-08T08:46:26.388Z,31.77
2023-05-08T08:51:33.116Z,34.25
2023-05-08T08:56:40.801Z,36.88
2023-05-08T09:01:46.608Z,37.72
2023-05-08T09:06:51.435Z,38.53
2023-05-08T09:11:55.918Z,36.08
2023-05-08T09:16:59.258Z,35.30
2023-05-08T09:22:02.489Z,33.33
2023-05-08T09:27:21.794Z,32.97
2023-05-08T09:32:25.390Z,33.47
2023-05-08T09:37:30.039Z,31.73
2023-05-08T09:42:40.430Z,31.88
2023-05-08T09:47:49.488Z,30.20
2023-05-08T09:52:52.932Z,29.33
2023-05-08T09:57:59.084Z,30.85
2023-05-08T10:03:04.147Z,30.80
2023-05-08T10:08:20.450Z,31.73
2023-05-08T10:13:26.387Z,32.28
2023-05-08T10:18:33.601Z,30.77
2023-05-08T10:23:38.884Z,27.92
2023-05-08T10:28:46.376Z,28.15
2023-05-08T10:33:52.364Z,26.70
2023-05-08T10:38:55.646Z,25.67
2023-05-08T10:44:03.361Z,26.73
2023-05-08T10:49:15.458Z,26.52
2023-05-08T10:54:23.060Z,25.40
2023-05-08T10:59:27.474Z,22.23
2023-05-08T11:04:30.689Z,22.58
2023-05-08T11:09:47.879Z,19.05
2023-05-08T11:15:03.420Z,18.85
2023-05-08T11:20:07.713Z,19.98
2023-05-08T11:25:11.947Z,23.05
2023-05-08T11:30:24.653Z,24.27
2023-05-08T11:35:48.498Z,25.77
2023-05-08T11:40:58.165Z,25.25
2023-05-08T11:46:04.391Z,24.35
2023-05-08T11:51:08.041Z,23.77
2023-05-08T11:56:11.250Z,23.17
2023-05-08T12:01:21.857Z,23.52
2023-05-08T12:06:25.057Z,24.20
2023-05-08T12:11:28.334Z,25.30
2023-05-08T12:16:37.645Z,25.00
2023-05-08T12:21:46.523Z,27.30
2023-05-08T12:26:50.466Z,27.88
2023-05-08T12:31:55.198Z,27.67
2023-05-08T12:37:05.030Z,31.38
2023-05-08T12:42:08.201Z,32.85
2023-05-08T12:47:12.971Z,36.00
2023-05-08T12:52:16.438Z,50.58
2023-05-08T12:57:22.619Z,65.55
2023-05-08T13:02:27.336Z,73.45
2023-05-08T13:07:33.192Z,77.00
2023-05-08T13:12:36.350Z,70.13
2023-05-08T13:17:40.892Z,72.38
2023-05-08T13:22:44.232Z,70.45
2023-05-08T13:27:48.571Z,71.13
2023-05-08T13:32:54.201Z,65.78
2023-05-08T13:37:57.497Z,63.45
2023-05-08T13:43:00.616Z,58.78
2023-05-08T13:48:05.543Z,58.33
2023-05-08T13:53:08.698Z,54.10
2023-05-08T13:58:11.793Z,55.30
2023-05-08T14:03:16.357Z,53.50
2023-05-08T14:08:19.893Z,52.25
2023-05-08T14:13:23.201Z,48.55
2023-05-08T14:18:27.733Z,42.30
2023-05-08T14:23:30.963Z,44.83
2023-05-08T14:28:34.219Z,39.42
2023-05-08T14:33:38.852Z,41.75
2023-05-08T14:38:42.046Z,43.70
2023-05-08T14:43:45.264Z,43.47
2023-05-08T14:48:49.753Z,44.13
2023-05-08T14:53:53.040Z,42.58
2023-05-08T14:58:56.296Z,41.10
2023-05-08T15:04:01.025Z,36.85
2023-05-08T15:09:04.474Z,30.73
2023-05-08T15:14:07.693Z,29.10
2023-05-08T15:19:12.518Z,31.60
2023-05-08T15:24:16.692Z,32.15
2023-05-08T15:29:19.916Z,28.95
2023-05-08T15:34:26.470Z,26.80
2023-05-08T15:40:16.232Z,30.55
2023-05-08T15:45:19.488Z,32.70
2023-05-08T15:50:24.152Z,34.50
2023-05-08T15:55:27.357Z,35.22
2023-05-08T16:00:43.932Z,34.95
2023-05-08T16:05:49.958Z,35.22
2023-05-08T16:10:56.038Z,35.72
2023-05-08T16:16:05.268Z,33.83
2023-05-08T16:21:11.949Z,33.15
2023-05-08T16:26:16.576Z,32.90
2023-05-08T16:31:19.923Z,28.52
2023-05-08T16:36:24.622Z,29.40
2023-05-08T16:41:27.976Z,24.13
2023-05-08T16:46:31.314Z,22.83
2023-05-08T16:51:35.863Z,21.50
2023-05-08T16:56:39.252Z,20.83
2023-05-08T17:01:42.542Z,19.60
2023-05-08T17:06:47.307Z,20.67
2023-05-08T17:11:50.477Z,19.77
2023-05-08T17:16:53.631Z,20.27
2023-05-08T17:21:59.696Z,19.50
2023-05-08T17:27:03.546Z,18.60
2023-05-08T17:32:06.997Z,19.17
2023-05-08T17:37:11.912Z,19.42
